sensor_id;sensor_type;location;lat;lon;timestamp;P1;durP1;ratioP1;P2;durP2;ratioP2
71106;SDS011;58763;47.982;11.516;2023-04-25T00:00:20;5.75;;;2.28;;
71106;SDS011;58763;47.982;11.516;2023-04-25T00:02:46;4.05;;;2.08;;
71106;SDS011;58763;47.982;11.516;2023-04-25T00:05:11;3.60;;;1.90;;
71106;SDS011;58763;47.982;11.516;2023-04-25T00:07:37;3.42;;;1.92;;
71106;SDS011;58763;47.982;11.516;2023-04-25T00:10:03;5.47;;;2.50;;
71106;SDS011;58763;47.982;11.516;2023-04-25T00:12:30;4.85;;;2.30;;
71106;SDS011;58763;47.982;11.516;2023-04-25T00:14:55;4.75;;;2.25;;
71106;SDS011;58763;47.982;11.516;2023-04-25T00:17:22;4.35;;;2.00;;
71106;SDS011;58763;47.982;11.516;2023-04-25T00:19:50;3.92;;;2.15;;
71106;SDS011;58763;47.982;11.516;2023-04-25T00:22:15;3.80;;;2.13;;
71106;SDS011;58763;47.982;11.516;2023-04-25T00:24:41;5.10;;;2.35;;
71106;SDS011;58763;47.982;11.516;2023-04-25T00:27:07;3.80;;;2.10;;
71106;SDS011;58763;47.982;11.516;2023-04-25T00:29:32;3.95;;;1.90;;
71106;SDS011;58763;47.982;11.516;2023-04-25T00:31:58;5.22;;;2.00;;
71106;SDS011;58763;47.982;11.516;2023-04-25T00:34:23;3.83;;;2.10;;
71106;SDS011;58763;47.982;11.516;2023-04-25T00:36:49;4.00;;;1.92;;
71106;SDS011;58763;47.982;11.516;2023-04-25T00:39:14;5.15;;;2.17;;
71106;SDS011;58763;47.982;11.516;2023-04-25T00:41:40;3.65;;;2.00;;
71106;SDS011;58763;47.982;11.516;2023-04-25T00:44:05;4.35;;;2.25;;
71106;SDS011;58763;47.982;11.516;2023-04-25T00:46:33;4.80;;;2.28;;
71106;SDS011;58763;47.982;11.516;2023-04-25T00:49:00;3.97;;;2.10;;
71106;SDS011;58763;47.982;11.516;2023-04-25T00:51:26;3.67;;;1.92;;
71106;SDS011;58763;47.982;11.516;2023-04-25T00:53:52;4.25;;;2.15;;
71106;SDS011;58763;47.982;11.516;2023-04-25T00:56:18;4.20;;;2.38;;
71106;SDS011;58763;47.982;11.516;2023-04-25T00:58:44;5.25;;;2.03;;
71106;SDS011;58763;47.982;11.516;2023-04-25T01:01:10;5.90;;;2.05;;
71106;SDS011;58763;47.982;11.516;2023-04-25T01:03:40;4.72;;;1.98;;
71106;SDS011;58763;47.982;11.516;2023-04-25T01:06:08;4.32;;;2.17;;
71106;SDS011;58763;47.982;11.516;2023-04-25T01:08:35;4.05;;;2.20;;
71106;SDS011;58763;47.982;11.516;2023-04-25T01:11:02;5.25;;;2.05;;
71106;SDS011;58763;47.982;11.516;2023-04-25T01:13:27;4.10;;;2.30;;
71106;SDS011;58763;47.982;11.516;2023-04-25T01:15:53;5.22;;;2.22;;
71106;SDS011;58763;47.982;11.516;2023-04-25T01:18:18;4.20;;;2.10;;
71106;SDS011;58763;47.982;11.516;2023-04-25T01:20:45;4.57;;;2.25;;
71106;SDS011;58763;47.982;11.516;2023-04-25T01:23:12;4.68;;;2.65;;
71106;SDS011;58763;47.982;11.516;2023-04-25T01:25:38;3.97;;;2.00;;
71106;SDS011;58763;47.982;11.516;2023-04-25T01:28:05;3.67;;;2.00;;
71106;SDS011;58763;47.982;11.516;2023-04-25T01:30:31;5.18;;;2.45;;
71106;SDS011;58763;47.982;11.516;2023-04-25T01:32:56;4.20;;;2.47;;
71106;SDS011;58763;47.982;11.516;2023-04-25T01:35:22;4.80;;;2.50;;
71106;SDS011;58763;47.982;11.516;2023-04-25T01:37:49;6.38;;;2.40;;
71106;SDS011;58763;47.982;11.516;2023-04-25T01:40:14;6.75;;;2.60;;
71106;SDS011;58763;47.982;11.516;2023-04-25T01:42:41;3.63;;;2.05;;
71106;SDS011;58763;47.982;11.516;2023-04-25T01:45:08;4.28;;;2.20;;
71106;SDS011;58763;47.982;11.516;2023-04-25T01:47:34;3.97;;;2.20;;
71106;SDS011;58763;47.982;11.516;2023-04-25T01:50:05;5.70;;;1.90;;
71106;SDS011;58763;47.982;11.516;2023-04-25T01:52:34;4.25;;;2.20;;
71106;SDS011;58763;47.982;11.516;2023-04-25T01:54:59;3.92;;;2.20;;
71106;SDS011;58763;47.982;11.516;2023-04-25T01:57:26;3.80;;;2.10;;
71106;SDS011;58763;47.982;11.516;2023-04-25T01:59:53;4.50;;;2.35;;
71106;SDS011;58763;47.982;11.516;2023-04-25T02:02:24;4.28;;;2.30;;
71106;SDS011;58763;47.982;11.516;2023-04-25T02:04:51;4.95;;;2.20;;
71106;SDS011;58763;47.982;11.516;2023-04-25T02:07:17;4.63;;;2.13;;
71106;SDS011;58763;47.982;11.516;2023-04-25T02:09:42;4.55;;;2.30;;
71106;SDS011;58763;47.982;11.516;2023-04-25T02:12:09;4.22;;;2.35;;
71106;SDS011;58763;47.982;11.516;2023-04-25T02:14:35;4.18;;;2.45;;
71106;SDS011;58763;47.982;11.516;2023-04-25T02:17:00;4.07;;;2.28;;
71106;SDS011;58763;47.982;11.516;2023-04-25T02:19:26;4.63;;;2.53;;
71106;SDS011;58763;47.982;11.516;2023-04-25T02:21:51;9.13;;;2.65;;
71106;SDS011;58763;47.982;11.516;2023-04-25T02:24:17;5.78;;;3.00;;
71106;SDS011;58763;47.982;11.516;2023-04-25T02:26:42;5.28;;;2.35;;
71106;SDS011;58763;47.982;11.516;2023-04-25T02:29:09;4.78;;;2.58;;
71106;SDS011;58763;47.982;11.516;2023-04-25T02:31:35;5.22;;;2.50;;
71106;SDS011;58763;47.982;11.516;2023-04-25T02:34:01;4.88;;;2.65;;
71106;SDS011;58763;47.982;11.516;2023-04-25T02:36:26;5.22;;;2.72;;
71106;SDS011;58763;47.982;11.516;2023-04-25T02:38:52;5.35;;;2.78;;
71106;SDS011;58763;47.982;11.516;2023-04-25T02:41:18;6.35;;;2.30;;
71106;SDS011;58763;47.982;11.516;2023-04-25T02:43:43;5.75;;;2.13;;
71106;SDS011;58763;47.982;11.516;2023-04-25T02:46:09;6.90;;;2.80;;
71106;SDS011;58763;47.982;11.516;2023-04-25T02:48:34;5.43;;;2.95;;
71106;SDS011;58763;47.982;11.516;2023-04-25T02:51:00;7.88;;;2.97;;
71106;SDS011;58763;47.982;11.516;2023-04-25T02:53:25;5.88;;;2.58;;
71106;SDS011;58763;47.982;11.516;2023-04-25T02:55:51;6.18;;;2.50;;
71106;SDS011;58763;47.982;11.516;2023-04-25T02:58:17;5.25;;;2.50;;
71106;SDS011;58763;47.982;11.516;2023-04-25T03:00:43;9.00;;;2.90;;
71106;SDS011;58763;47.982;11.516;2023-04-25T03:03:09;5.15;;;2.20;;
71106;SDS011;58763;47.982;11.516;2023-04-25T03:05:34;5.15;;;2.35;;
71106;SDS011;58763;47.982;11.516;2023-04-25T03:08:00;6.20;;;2.33;;
71106;SDS011;58763;47.982;11.516;2023-04-25T03:10:25;8.63;;;2.70;;
71106;SDS011;58763;47.982;11.516;2023-04-25T03:12:51;5.25;;;2.20;;
71106;SDS011;58763;47.982;11.516;2023-04-25T03:15:16;5.85;;;2.60;;
71106;SDS011;58763;47.982;11.516;2023-04-25T03:17:42;4.88;;;2.25;;
71106;SDS011;58763;47.982;11.516;2023-04-25T03:20:08;5.20;;;2.40;;
71106;SDS011;58763;47.982;11.516;2023-04-25T03:22:34;3.97;;;2.35;;
71106;SDS011;58763;47.982;11.516;2023-04-25T03:24:59;5.80;;;2.45;;
71106;SDS011;58763;47.982;11.516;2023-04-25T03:27:25;4.10;;;2.20;;
71106;SDS011;58763;47.982;11.516;2023-04-25T03:29:50;5.97;;;2.25;;
71106;SDS011;58763;47.982;11.516;2023-04-25T03:32:16;4.40;;;2.20;;
71106;SDS011;58763;47.982;11.516;2023-04-25T03:34:41;5.30;;;2.40;;
71106;SDS011;58763;47.982;11.516;2023-04-25T03:37:07;6.28;;;2.22;;
71106;SDS011;58763;47.982;11.516;2023-04-25T03:39:32;7.28;;;2.42;;
71106;SDS011;58763;47.982;11.516;2023-04-25T03:41:58;4.85;;;2.20;;
71106;SDS011;58763;47.982;11.516;2023-04-25T03:44:23;4.38;;;2.17;;
71106;SDS011;58763;47.982;11.516;2023-04-25T03:46:49;5.50;;;2.10;;
71106;SDS011;58763;47.982;11.516;2023-04-25T03:49:15;3.80;;;1.90;;
71106;SDS011;58763;47.982;11.516;2023-04-25T03:51:41;3.83;;;1.92;;
71106;SDS011;58763;47.982;11.516;2023-04-25T03:54:06;4.32;;;2.00;;
71106;SDS011;58763;47.982;11.516;2023-04-25T03:56:32;5.28;;;2.35;;
71106;SDS011;58763;47.982;11.516;2023-04-25T03:58:58;4.22;;;1.77;;
71106;SDS011;58763;47.982;11.516;2023-04-25T04:01:23;3.70;;;1.98;;
71106;SDS011;58763;47.982;11.516;2023-04-25T04:03:49;3.83;;;1.85;;
71106;SDS011;58763;47.982;11.516;2023-04-25T04:06:14;7.18;;;2.10;;
71106;SDS011;58763;47.982;11.516;2023-04-25T04:08:40;4.80;;;2.10;;
71106;SDS011;58763;47.982;11.516;2023-04-25T04:11:05;4.95;;;1.65;;
71106;SDS011;58763;47.982;11.516;2023-04-25T04:13:32;4.75;;;1.92;;
71106;SDS011;58763;47.982;11.516;2023-04-25T04:15:57;3.45;;;1.70;;
71106;SDS011;58763;47.982;11.516;2023-04-25T04:18:23;4.13;;;1.55;;
71106;SDS011;58763;47.982;11.516;2023-04-25T04:20:49;4.38;;;2.10;;
71106;SDS011;58763;47.982;11.516;2023-04-25T04:23:15;2.97;;;1.50;;
71106;SDS011;58763;47.982;11.516;2023-04-25T04:25:40;3.97;;;1.98;;
71106;SDS011;58763;47.982;11.516;2023-04-25T04:28:07;6.13;;;2.03;;
71106;SDS011;58763;47.982;11.516;2023-04-25T04:30:32;4.72;;;1.90;;
71106;SDS011;58763;47.982;11.516;2023-04-25T04:33:01;6.13;;;2.95;;
71106;SDS011;58763;47.982;11.516;2023-04-25T04:35:27;18.33;;;7.32;;
71106;SDS011;58763;47.982;11.516;2023-04-25T04:37:53;4.82;;;2.20;;
71106;SDS011;58763;47.982;11.516;2023-04-25T04:40:18;6.95;;;2.70;;
71106;SDS011;58763;47.982;11.516;2023-04-25T04:42:44;5.05;;;2.40;;
71106;SDS011;58763;47.982;11.516;2023-04-25T04:45:13;5.82;;;2.40;;
71106;SDS011;58763;47.982;11.516;2023-04-25T04:47:39;5.75;;;1.98;;
71106;SDS011;58763;47.982;11.516;2023-04-25T04:50:09;5.68;;;2.30;;
71106;SDS011;58763;47.982;11.516;2023-04-25T04:52:35;5.35;;;2.55;;
71106;SDS011;58763;47.982;11.516;2023-04-25T04:55:02;4.78;;;2.10;;
71106;SDS011;58763;47.982;11.516;2023-04-25T04:57:28;6.25;;;2.90;;
71106;SDS011;58763;47.982;11.516;2023-04-25T04:59:54;4.50;;;2.25;;
71106;SDS011;58763;47.982;11.516;2023-04-25T05:02:20;5.45;;;2.30;;
71106;SDS011;58763;47.982;11.516;2023-04-25T05:04:45;4.05;;;1.90;;
71106;SDS011;58763;47.982;11.516;2023-04-25T05:07:11;4.53;;;1.90;;
71106;SDS011;58763;47.982;11.516;2023-04-25T05:09:37;4.72;;;2.03;;
71106;SDS011;58763;47.982;11.516;2023-04-25T05:12:03;4.50;;;2.25;;
71106;SDS011;58763;47.982;11.516;2023-04-25T05:14:29;5.30;;;2.30;;
71106;SDS011;58763;47.982;11.516;2023-04-25T05:16:54;6.05;;;2.20;;
71106;SDS011;58763;47.982;11.516;2023-04-25T05:19:20;3.75;;;2.17;;
71106;SDS011;58763;47.982;11.516;2023-04-25T05:21:45;7.22;;;2.38;;
71106;SDS011;58763;47.982;11.516;2023-04-25T05:24:11;5.07;;;1.83;;
71106;SDS011;58763;47.982;11.516;2023-04-25T05:26:37;6.07;;;2.00;;
71106;SDS011;58763;47.982;11.516;2023-04-25T05:29:02;6.88;;;2.17;;
71106;SDS011;58763;47.982;11.516;2023-04-25T05:31:28;4.00;;;2.10;;
71106;SDS011;58763;47.982;11.516;2023-04-25T05:33:53;4.40;;;1.85;;
71106;SDS011;58763;47.982;11.516;2023-04-25T05:36:19;7.85;;;2.10;;
71106;SDS011;58763;47.982;11.516;2023-04-25T05:38:44;5.05;;;2.20;;
71106;SDS011;58763;47.982;11.516;2023-04-25T05:41:10;4.60;;;2.00;;
71106;SDS011;58763;47.982;11.516;2023-04-25T05:43:36;4.40;;;2.28;;
71106;SDS011;58763;47.982;11.516;2023-04-25T05:46:01;4.80;;;2.20;;
71106;SDS011;58763;47.982;11.516;2023-04-25T05:48:27;3.60;;;2.00;;
71106;SDS011;58763;47.982;11.516;2023-04-25T05:50:52;4.45;;;2.20;;
71106;SDS011;58763;47.982;11.516;2023-04-25T05:53:18;4.80;;;2.45;;
71106;SDS011;58763;47.982;11.516;2023-04-25T05:55:44;5.30;;;1.80;;
71106;SDS011;58763;47.982;11.516;2023-04-25T05:58:10;5.68;;;1.90;;
71106;SDS011;58763;47.982;11.516;2023-04-25T06:00:35;4.05;;;2.03;;
71106;SDS011;58763;47.982;11.516;2023-04-25T06:03:01;4.93;;;2.10;;
71106;SDS011;58763;47.982;11.516;2023-04-25T06:05:26;5.32;;;2.30;;
71106;SDS011;58763;47.982;11.516;2023-04-25T06:07:52;3.35;;;1.77;;
71106;SDS011;58763;47.982;11.516;2023-04-25T06:10:17;4.78;;;1.90;;
71106;SDS011;58763;47.982;11.516;2023-04-25T06:12:43;4.18;;;2.35;;
71106;SDS011;58763;47.982;11.516;2023-04-25T06:15:09;6.63;;;2.22;;
71106;SDS011;58763;47.982;11.516;2023-04-25T06:17:35;6.93;;;2.33;;
71106;SDS011;58763;47.982;11.516;2023-04-25T06:20:01;5.50;;;2.30;;
71106;SDS011;58763;47.982;11.516;2023-04-25T06:22:27;8.00;;;2.55;;
71106;SDS011;58763;47.982;11.516;2023-04-25T06:24:52;8.20;;;2.42;;
71106;SDS011;58763;47.982;11.516;2023-04-25T06:27:18;5.65;;;2.58;;
71106;SDS011;58763;47.982;11.516;2023-04-25T06:29:43;4.50;;;2.53;;
71106;SDS011;58763;47.982;11.516;2023-04-25T06:32:08;5.95;;;2.83;;
71106;SDS011;58763;47.982;11.516;2023-04-25T06:34:34;8.20;;;2.95;;
71106;SDS011;58763;47.982;11.516;2023-04-25T06:37:00;8.65;;;3.13;;
71106;SDS011;58763;47.982;11.516;2023-04-25T06:39:25;7.88;;;2.78;;
71106;SDS011;58763;47.982;11.516;2023-04-25T06:41:50;7.45;;;3.25;;
71106;SDS011;58763;47.982;11.516;2023-04-25T06:44:16;6.57;;;3.03;;
71106;SDS011;58763;47.982;11.516;2023-04-25T06:46:41;7.38;;;2.95;;
71106;SDS011;58763;47.982;11.516;2023-04-25T06:49:07;7.50;;;3.00;;
71106;SDS011;58763;47.982;11.516;2023-04-25T06:51:32;5.20;;;3.03;;
71106;SDS011;58763;47.982;11.516;2023-04-25T06:53:58;6.40;;;3.45;;
71106;SDS011;58763;47.982;11.516;2023-04-25T06:56:24;7.57;;;3.50;;
71106;SDS011;58763;47.982;11.516;2023-04-25T06:58:49;7.35;;;3.10;;
71106;SDS011;58763;47.982;11.516;2023-04-25T07:01:14;7.78;;;3.60;;
71106;SDS011;58763;47.982;11.516;2023-04-25T07:03:40;8.38;;;3.17;;
71106;SDS011;58763;47.982;11.516;2023-04-25T07:06:06;7.85;;;3.13;;
71106;SDS011;58763;47.982;11.516;2023-04-25T07:08:31;7.93;;;3.15;;
71106;SDS011;58763;47.982;11.516;2023-04-25T07:10:57;7.03;;;3.40;;
71106;SDS011;58763;47.982;11.516;2023-04-25T07:13:22;8.00;;;3.53;;
71106;SDS011;58763;47.982;11.516;2023-04-25T07:15:48;6.80;;;3.80;;
71106;SDS011;58763;47.982;11.516;2023-04-25T07:18:14;5.60;;;3.30;;
71106;SDS011;58763;47.982;11.516;2023-04-25T07:20:39;8.10;;;3.28;;
71106;SDS011;58763;47.982;11.516;2023-04-25T07:23:05;8.02;;;3.55;;
71106;SDS011;58763;47.982;11.516;2023-04-25T07:25:30;6.10;;;3.50;;
71106;SDS011;58763;47.982;11.516;2023-04-25T07:27:56;5.97;;;3.22;;
71106;SDS011;58763;47.982;11.516;2023-04-25T07:30:22;8.23;;;3.20;;
71106;SDS011;58763;47.982;11.516;2023-04-25T07:32:48;6.97;;;3.08;;
71106;SDS011;58763;47.982;11.516;2023-04-25T07:35:14;5.15;;;2.90;;
71106;SDS011;58763;47.982;11.516;2023-04-25T07:37:39;6.03;;;2.95;;
71106;SDS011;58763;47.982;11.516;2023-04-25T07:40:05;5.40;;;3.10;;
71106;SDS011;58763;47.982;11.516;2023-04-25T07:42:31;6.20;;;2.97;;
71106;SDS011;58763;47.982;11.516;2023-04-25T07:44:57;10.00;;;2.60;;
71106;SDS011;58763;47.982;11.516;2023-04-25T07:47:22;6.13;;;2.58;;
71106;SDS011;58763;47.982;11.516;2023-04-25T07:49:48;6.28;;;2.58;;
71106;SDS011;58763;47.982;11.516;2023-04-25T07:52:13;5.20;;;2.20;;
71106;SDS011;58763;47.982;11.516;2023-04-25T07:54:39;6.40;;;2.40;;
71106;SDS011;58763;47.982;11.516;2023-04-25T07:57:05;4.75;;;2.30;;
71106;SDS011;58763;47.982;11.516;2023-04-25T07:59:31;6.75;;;2.40;;
71106;SDS011;58763;47.982;11.516;2023-04-25T08:01:57;4.82;;;2.40;;
71106;SDS011;58763;47.982;11.516;2023-04-25T08:04:23;6.05;;;2.35;;
71106;SDS011;58763;47.982;11.516;2023-04-25T08:06:49;7.30;;;2.40;;
71106;SDS011;58763;47.982;11.516;2023-04-25T08:09:15;5.43;;;2.22;;
71106;SDS011;58763;47.982;11.516;2023-04-25T08:11:41;5.45;;;2.08;;
71106;SDS011;58763;47.982;11.516;2023-04-25T08:14:07;4.90;;;1.67;;
71106;SDS011;58763;47.982;11.516;2023-04-25T08:16:32;5.40;;;1.92;;
71106;SDS011;58763;47.982;11.516;2023-04-25T08:18:59;3.40;;;1.55;;
71106;SDS011;58763;47.982;11.516;2023-04-25T08:21:25;3.20;;;1.70;;
71106;SDS011;58763;47.982;11.516;2023-04-25T08:23:52;5.60;;;2.65;;
71106;SDS011;58763;47.982;11.516;2023-04-25T08:26:18;6.47;;;2.30;;
71106;SDS011;58763;47.982;11.516;2023-04-25T08:28:43;6.63;;;2.20;;
71106;SDS011;58763;47.982;11.516;2023-04-25T08:31:08;4.88;;;2.00;;
71106;SDS011;58763;47.982;11.516;2023-04-25T08:33:34;3.47;;;1.67;;
71106;SDS011;58763;47.982;11.516;2023-04-25T08:36:00;4.35;;;1.85;;
71106;SDS011;58763;47.982;11.516;2023-04-25T08:38:25;4.93;;;2.00;;
71106;SDS011;58763;47.982;11.516;2023-04-25T08:40:51;7.05;;;2.20;;
71106;SDS011;58763;47.982;11.516;2023-04-25T08:43:18;5.25;;;2.13;;
71106;SDS011;58763;47.982;11.516;2023-04-25T08:45:44;5.95;;;2.08;;
71106;SDS011;58763;47.982;11.516;2023-04-25T08:48:13;7.88;;;3.50;;
71106;SDS011;58763;47.982;11.516;2023-04-25T08:50:45;5.47;;;2.28;;
71106;SDS011;58763;47.982;11.516;2023-04-25T08:53:11;4.35;;;2.20;;
71106;SDS011;58763;47.982;11.516;2023-04-25T08:55:43;5.43;;;2.30;;
71106;SDS011;58763;47.982;11.516;2023-04-25T08:58:11;5.28;;;2.20;;
71106;SDS011;58763;47.982;11.516;2023-04-25T09:00:37;5.13;;;2.08;;
71106;SDS011;58763;47.982;11.516;2023-04-25T09:03:03;6.97;;;2.40;;
71106;SDS011;58763;47.982;11.516;2023-04-25T09:05:29;5.55;;;2.50;;
71106;SDS011;58763;47.982;11.516;2023-04-25T09:07:55;6.05;;;2.60;;
71106;SDS011;58763;47.982;11.516;2023-04-25T09:10:21;5.82;;;2.92;;
71106;SDS011;58763;47.982;11.516;2023-04-25T09:13:06;5.53;;;2.45;;
71106;SDS011;58763;47.982;11.516;2023-04-25T09:15:46;5.40;;;2.33;;
71106;SDS011;58763;47.982;11.516;2023-04-25T09:18:13;5.00;;;2.33;;
71106;SDS011;58763;47.982;11.516;2023-04-25T09:20:42;5.65;;;2.60;;
71106;SDS011;58763;47.982;11.516;2023-04-25T09:23:08;5.13;;;2.20;;
71106;SDS011;58763;47.982;11.516;2023-04-25T09:25:34;4.28;;;2.10;;
71106;SDS011;58763;47.982;11.516;2023-04-25T09:28:05;6.28;;;2.45;;
71106;SDS011;58763;47.982;11.516;2023-04-25T09:30:32;6.65;;;2.63;;
71106;SDS011;58763;47.982;11.516;2023-04-25T09:33:05;7.15;;;2.40;;
71106;SDS011;58763;47.982;11.516;2023-04-25T09:35:36;6.25;;;1.90;;
71106;SDS011;58763;47.982;11.516;2023-04-25T09:40:39;4.28;;;1.75;;
71106;SDS011;58763;47.982;11.516;2023-04-25T09:43:18;4.65;;;1.60;;
71106;SDS011;58763;47.982;11.516;2023-04-25T09:45:46;4.43;;;1.60;;
71106;SDS011;58763;47.982;11.516;2023-04-25T09:48:18;3.67;;;1.88;;
71106;SDS011;58763;47.982;11.516;2023-04-25T09:53:31;4.03;;;1.55;;
71106;SDS011;58763;47.982;11.516;2023-04-25T09:56:02;5.15;;;1.70;;
71106;SDS011;58763;47.982;11.516;2023-04-25T09:58:32;3.92;;;1.88;;
71106;SDS011;58763;47.982;11.516;2023-04-25T10:01:03;5.10;;;1.92;;
71106;SDS011;58763;47.982;11.516;2023-04-25T10:03:30;4.00;;;1.90;;
71106;SDS011;58763;47.982;11.516;2023-04-25T10:06:01;4.75;;;2.00;;
71106;SDS011;58763;47.982;11.516;2023-04-25T10:08:33;5.28;;;1.90;;
71106;SDS011;58763;47.982;11.516;2023-04-25T10:11:03;4.05;;;1.73;;
71106;SDS011;58763;47.982;11.516;2023-04-25T10:13:30;4.78;;;1.70;;
71106;SDS011;58763;47.982;11.516;2023-04-25T10:15:57;3.97;;;1.70;;
71106;SDS011;58763;47.982;11.516;2023-04-25T10:18:24;3.55;;;1.52;;
71106;SDS011;58763;47.982;11.516;2023-04-25T10:20:50;3.53;;;1.70;;
71106;SDS011;58763;47.982;11.516;2023-04-25T10:23:16;4.18;;;1.60;;
71106;SDS011;58763;47.982;11.516;2023-04-25T10:25:42;3.88;;;1.70;;
71106;SDS011;58763;47.982;11.516;2023-04-25T10:28:09;5.13;;;2.00;;
71106;SDS011;58763;47.982;11.516;2023-04-25T10:30:34;4.18;;;1.48;;
71106;SDS011;58763;47.982;11.516;2023-04-25T10:33:00;4.88;;;1.52;;
71106;SDS011;58763;47.982;11.516;2023-04-25T10:35:26;3.50;;;1.45;;
71106;SDS011;58763;47.982;11.516;2023-04-25T10:38:00;4.75;;;1.67;;
71106;SDS011;58763;47.982;11.516;2023-04-25T10:40:38;2.80;;;1.30;;
71106;SDS011;58763;47.982;11.516;2023-04-25T10:46:12;4.30;;;1.48;;
71106;SDS011;58763;47.982;11.516;2023-04-25T10:48:45;3.20;;;1.20;;
71106;SDS011;58763;47.982;11.516;2023-04-25T10:53:43;4.03;;;1.48;;
71106;SDS011;58763;47.982;11.516;2023-04-25T10:56:10;2.40;;;1.13;;
71106;SDS011;58763;47.982;11.516;2023-04-25T10:58:43;3.55;;;1.50;;
71106;SDS011;58763;47.982;11.516;2023-04-25T11:01:11;3.08;;;1.40;;
71106;SDS011;58763;47.982;11.516;2023-04-25T11:03:41;3.60;;;1.50;;
71106;SDS011;58763;47.982;11.516;2023-04-25T11:06:29;3.10;;;1.70;;
71106;SDS011;58763;47.982;11.516;2023-04-25T11:09:09;5.05;;;2.40;;
71106;SDS011;58763;47.982;11.516;2023-04-25T11:11:38;4.80;;;1.90;;
71106;SDS011;58763;47.982;11.516;2023-04-25T11:14:04;5.30;;;2.40;;
71106;SDS011;58763;47.982;11.516;2023-04-25T11:16:30;5.50;;;2.22;;
71106;SDS011;58763;47.982;11.516;2023-04-25T11:18:59;3.80;;;1.83;;
71106;SDS011;58763;47.982;11.516;2023-04-25T11:21:25;4.53;;;2.38;;
71106;SDS011;58763;47.982;11.516;2023-04-25T11:23:53;4.95;;;2.20;;
71106;SDS011;58763;47.982;11.516;2023-04-25T11:26:19;6.35;;;2.58;;
71106;SDS011;58763;47.982;11.516;2023-04-25T11:28:45;4.28;;;2.10;;
71106;SDS011;58763;47.982;11.516;2023-04-25T11:31:12;3.92;;;2.05;;
71106;SDS011;58763;47.982;11.516;2023-04-25T11:33:38;4.43;;;2.08;;
71106;SDS011;58763;47.982;11.516;2023-04-25T11:36:05;4.40;;;2.30;;
71106;SDS011;58763;47.982;11.516;2023-04-25T11:38:31;4.57;;;2.35;;
71106;SDS011;58763;47.982;11.516;2023-04-25T11:40:57;3.97;;;2.28;;
71106;SDS011;58763;47.982;11.516;2023-04-25T11:43:22;4.35;;;2.25;;
71106;SDS011;58763;47.982;11.516;2023-04-25T11:45:51;5.20;;;2.35;;
71106;SDS011;58763;47.982;11.516;2023-04-25T11:48:17;4.65;;;2.40;;
71106;SDS011;58763;47.982;11.516;2023-04-25T11:50:44;4.10;;;2.30;;
71106;SDS011;58763;47.982;11.516;2023-04-25T11:53:10;4.15;;;2.08;;
71106;SDS011;58763;47.982;11.516;2023-04-25T11:55:36;4.93;;;2.40;;
71106;SDS011;58763;47.982;11.516;2023-04-25T11:58:03;3.83;;;2.05;;
71106;SDS011;58763;47.982;11.516;2023-04-25T12:00:29;4.85;;;1.80;;
71106;SDS011;58763;47.982;11.516;2023-04-25T12:02:56;5.10;;;2.05;;
71106;SDS011;58763;47.982;11.516;2023-04-25T12:05:29;4.90;;;2.00;;
71106;SDS011;58763;47.982;11.516;2023-04-25T12:07:55;4.13;;;1.60;;
71106;SDS011;58763;47.982;11.516;2023-04-25T12:10:21;2.67;;;1.60;;
71106;SDS011;58763;47.982;11.516;2023-04-25T12:12:49;3.97;;;1.58;;
71106;SDS011;58763;47.982;11.516;2023-04-25T12:15:22;3.40;;;1.60;;
71106;SDS011;58763;47.982;11.516;2023-04-25T12:17:50;4.20;;;1.48;;
71106;SDS011;58763;47.982;11.516;2023-04-25T12:20:17;2.67;;;1.15;;
71106;SDS011;58763;47.982;11.516;2023-04-25T12:22:47;3.55;;;1.20;;
71106;SDS011;58763;47.982;11.516;2023-04-25T12:25:33;2.83;;;1.13;;
71106;SDS011;58763;47.982;11.516;2023-04-25T12:30:55;3.25;;;1.25;;
71106;SDS011;58763;47.982;11.516;2023-04-25T12:33:34;4.13;;;1.13;;
71106;SDS011;58763;47.982;11.516;2023-04-25T12:36:03;3.70;;;1.02;;
71106;SDS011;58763;47.982;11.516;2023-04-25T12:38:40;2.55;;;1.05;;
71106;SDS011;58763;47.982;11.516;2023-04-25T12:41:07;1.90;;;0.90;;
71106;SDS011;58763;47.982;11.516;2023-04-25T12:43:33;2.50;;;0.85;;
71106;SDS011;58763;47.982;11.516;2023-04-25T12:45:59;1.50;;;0.50;;
71106;SDS011;58763;47.982;11.516;2023-04-25T12:48:24;1.80;;;0.52;;
71106;SDS011;58763;47.982;11.516;2023-04-25T12:50:50;2.38;;;0.50;;
71106;SDS011;58763;47.982;11.516;2023-04-25T12:53:21;1.23;;;0.50;;
71106;SDS011;58763;47.982;11.516;2023-04-25T12:55:47;1.63;;;0.60;;
71106;SDS011;58763;47.982;11.516;2023-04-25T12:58:14;1.23;;;0.52;;
71106;SDS011;58763;47.982;11.516;2023-04-25T13:00:43;1.63;;;0.70;;
71106;SDS011;58763;47.982;11.516;2023-04-25T13:03:09;3.05;;;0.70;;
71106;SDS011;58763;47.982;11.516;2023-04-25T13:05:36;1.85;;;0.68;;
71106;SDS011;58763;47.982;11.516;2023-04-25T13:08:02;2.45;;;0.75;;
71106;SDS011;58763;47.982;11.516;2023-04-25T13:10:28;1.85;;;0.80;;
71106;SDS011;58763;47.982;11.516;2023-04-25T13:12:53;1.73;;;0.60;;
71106;SDS011;58763;47.982;11.516;2023-04-25T13:15:19;2.03;;;0.80;;
71106;SDS011;58763;47.982;11.516;2023-04-25T13:17:45;1.88;;;0.88;;
71106;SDS011;58763;47.982;11.516;2023-04-25T13:20:10;1.63;;;0.73;;
71106;SDS011;58763;47.982;11.516;2023-04-25T13:22:39;1.40;;;0.70;;
71106;SDS011;58763;47.982;11.516;2023-04-25T13:25:05;1.13;;;0.50;;
71106;SDS011;58763;47.982;11.516;2023-04-25T13:27:32;1.35;;;0.60;;
71106;SDS011;58763;47.982;11.516;2023-04-25T13:29:59;1.30;;;0.60;;
71106;SDS011;58763;47.982;11.516;2023-04-25T13:32:28;2.30;;;0.60;;
71106;SDS011;58763;47.982;11.516;2023-04-25T13:34:54;2.28;;;0.57;;
71106;SDS011;58763;47.982;11.516;2023-04-25T13:37:19;2.50;;;1.10;;
71106;SDS011;58763;47.982;11.516;2023-04-25T13:39:46;2.00;;;0.70;;
71106;SDS011;58763;47.982;11.516;2023-04-25T13:42:11;1.52;;;0.70;;
71106;SDS011;58763;47.982;11.516;2023-04-25T13:44:37;1.92;;;0.63;;
71106;SDS011;58763;47.982;11.516;2023-04-25T13:47:02;1.95;;;0.70;;
71106;SDS011;58763;47.982;11.516;2023-04-25T13:49:28;1.92;;;0.82;;
71106;SDS011;58763;47.982;11.516;2023-04-25T13:51:54;1.85;;;0.80;;
71106;SDS011;58763;47.982;11.516;2023-04-25T13:54:19;2.42;;;1.00;;
71106;SDS011;58763;47.982;11.516;2023-04-25T13:56:45;2.90;;;1.23;;
71106;SDS011;58763;47.982;11.516;2023-04-25T13:59:10;2.85;;;1.05;;
71106;SDS011;58763;47.982;11.516;2023-04-25T14:01:36;2.58;;;1.10;;
71106;SDS011;58763;47.982;11.516;2023-04-25T14:04:02;1.98;;;0.80;;
71106;SDS011;58763;47.982;11.516;2023-04-25T14:06:29;1.60;;;0.73;;
71106;SDS011;58763;47.982;11.516;2023-04-25T14:08:55;1.60;;;0.75;;
71106;SDS011;58763;47.982;11.516;2023-04-25T14:11:21;1.80;;;0.63;;
71106;SDS011;58763;47.982;11.516;2023-04-25T14:13:47;1.60;;;0.60;;
71106;SDS011;58763;47.982;11.516;2023-04-25T14:16:15;2.30;;;0.60;;
71106;SDS011;58763;47.982;11.516;2023-04-25T14:18:41;1.67;;;0.77;;
71106;SDS011;58763;47.982;11.516;2023-04-25T14:21:06;2.20;;;1.00;;
71106;SDS011;58763;47.982;11.516;2023-04-25T14:23:32;2.03;;;0.85;;
71106;SDS011;58763;47.982;11.516;2023-04-25T14:25:58;2.58;;;0.70;;
71106;SDS011;58763;47.982;11.516;2023-04-25T14:28:23;1.77;;;0.77;;
71106;SDS011;58763;47.982;11.516;2023-04-25T14:30:49;2.58;;;0.80;;
71106;SDS011;58763;47.982;11.516;2023-04-25T14:33:14;1.70;;;0.70;;
71106;SDS011;58763;47.982;11.516;2023-04-25T14:35:40;1.50;;;0.70;;
71106;SDS011;58763;47.982;11.516;2023-04-25T14:38:06;2.25;;;0.77;;
71106;SDS011;58763;47.982;11.516;2023-04-25T14:40:33;1.55;;;0.77;;
71106;SDS011;58763;47.982;11.516;2023-04-25T14:42:58;2.38;;;0.80;;